sensor_id;sensor_type;location;lat;lon;timestamp;pressure;altitude;pressure_sealevel;temperature;humidity
10466;BME280;5280;42.600;23.556;2024-01-15T00:00:17;92802.22;;;-1.22;100.00
10466;BME280;5280;42.600;23.556;2024-01-15T00:02:44;92819.25;;;-1.16;100.00
10466;BME280;5280;42.600;23.556;2024-01-15T00:05:16;92815.88;;;-1.18;100.00
10466;BME280;5280;42.600;23.556;2024-01-15T00:07:43;92812.44;;;-1.19;100.00
10466;BME280;5280;42.600;23.556;2024-01-15T00:10:10;92825.34;;;-1.17;100.00
10466;BME280;5280;42.600;23.556;2024-01-15T00:12:38;92787.50;;;-1.40;100.00
10466;BME280;5280;42.600;23.556;2024-01-15T00:15:06;92806.06;;;-1.31;100.00
10466;BME280;5280;42.600;23.556;2024-01-15T00:17:33;92817.28;;;-1.30;100.00
10466;BME280;5280;42.600;23.556;2024-01-15T00:20:00;92817.81;;;-1.23;100.00
10466;BME280;5280;42.600;23.556;2024-01-15T00:22:31;92818.69;;;-1.23;100.00
10466;BME280;5280;42.600;23.556;2024-01-15T00:25:01;92819.56;;;-1.24;100.00
10466;BME280;5280;42.600;23.556;2024-01-15T00:27:28;92828.19;;;-1.23;100.00
10466;BME280;5280;42.600;23.556;2024-01-15T00:29:55;92798.50;;;-1.55;100.00
10466;BME280;5280;42.600;23.556;2024-01-15T00:32:22;92808.97;;;-1.38;100.00
10466;BME280;5280;42.600;23.556;2024-01-15T00:34:49;92772.09;;;-1.63;100.00
10466;BME280;5280;42.600;23.556;2024-01-15T00:37:17;92824.75;;;-1.24;100.00
10466;BME280;5280;42.600;23.556;2024-01-15T00:39:45;92812.09;;;-1.30;100.00
10466;BME280;5280;42.600;23.556;2024-01-15T00:42:12;92813.06;;;-1.33;100.00
10466;BME280;5280;42.600;23.556;2024-01-15T00:44:39;92761.91;;;-1.68;100.00
10466;BME280;5280;42.600;23.556;2024-01-15T00:47:06;92818.19;;;-1.31;100.00
10466;BME280;5280;42.600;23.556;2024-01-15T00:49:33;92837.91;;;-1.28;100.00
10466;BME280;5280;42.600;23.556;2024-01-15T00:52:00;92840.00;;;-1.37;100.00
10466;BME280;5280;42.600;23.556;2024-01-15T00:54:27;92821.66;;;-1.32;100.00
10466;BME280;5280;42.600;23.556;2024-01-15T00:56:56;92781.41;;;-1.59;100.00
10466;BME280;5280;42.600;23.556;2024-01-15T00:59:23;92818.44;;;-1.37;100.00
10466;BME280;5280;42.600;23.556;2024-01-15T01:01:50;92804.69;;;-1.39;100.00
10466;BME280;5280;42.600;23.556;2024-01-15T01:04:17;92819.97;;;-1.33;100.00
10466;BME280;5280;42.600;23.556;2024-01-15T01:06:44;92809.19;;;-1.43;100.00
10466;BME280;5280;42.600;23.556;2024-01-15T01:09:14;92783.94;;;-1.58;100.00
10466;BME280;5280;42.600;23.556;2024-01-15T01:11:41;92811.50;;;-1.37;100.00
10466;BME280;5280;42.600;23.556;2024-01-15T01:14:13;92820.25;;;-1.39;100.00
10466;BME280;5280;42.600;23.556;2024-01-15T01:16:40;92822.91;;;-1.41;100.00
10466;BME280;5280;42.600;23.556;2024-01-15T01:19:07;92814.16;;;-1.38;100.00
10466;BME280;5280;42.600;23.556;2024-01-15T01:21:35;92813.50;;;-1.43;100.00
10466;BME280;5280;42.600;23.556;2024-01-15T01:24:02;92803.16;;;-1.43;100.00
10466;BME280;5280;42.600;23.556;2024-01-15T01:26:32;92803.34;;;-1.48;100.00
10466;BME280;5280;42.600;23.556;2024-01-15T01:28:59;92758.88;;;-1.78;100.00
10466;BME280;5280;42.600;23.556;2024-01-15T01:31:28;92768.19;;;-1.74;100.00
10466;BME280;5280;42.600;23.556;2024-01-15T01:33:55;92789.94;;;-1.57;100.00
10466;BME280;5280;42.600;23.556;2024-01-15T01:36:22;92797.41;;;-1.50;100.00
10466;BME280;5280;42.600;23.556;2024-01-15T01:38:49;92794.19;;;-1.55;100.00
10466;BME280;5280;42.600;23.556;2024-01-15T01:41:16;92796.94;;;-1.59;100.00
10466;BME280;5280;42.600;23.556;2024-01-15T01:43:43;92784.91;;;-1.60;100.00
10466;BME280;5280;42.600;23.556;2024-01-15T01:46:11;92805.94;;;-1.48;100.00
10466;BME280;5280;42.600;23.556;2024-01-15T01:48:39;92800.81;;;-1.49;100.00
10466;BME280;5280;42.600;23.556;2024-01-15T01:51:07;92777.00;;;-1.57;100.00
10466;BME280;5280;42.600;23.556;2024-01-15T01:53:35;92743.75;;;-1.87;100.00
10466;BME280;5280;42.600;23.556;2024-01-15T01:56:04;92782.78;;;-1.51;100.00
10466;BME280;5280;42.600;23.556;2024-01-15T01:58:32;92742.97;;;-1.89;100.00
10466;BME280;5280;42.600;23.556;2024-01-15T02:01:03;92786.41;;;-1.55;100.00
10466;BME280;5280;42.600;23.556;2024-01-15T02:03:30;92751.97;;;-1.77;100.00
10466;BME280;5280;42.600;23.556;2024-01-15T02:05:59;92771.81;;;-1.57;100.00
10466;BME280;5280;42.600;23.556;2024-01-15T02:08:27;92779.28;;;-1.50;100.00
10466;BME280;5280;42.600;23.556;2024-01-15T02:10:54;92779.44;;;-1.54;100.00
10466;BME280;5280;42.600;23.556;2024-01-15T02:13:23;92759.13;;;-1.63;100.00
10466;BME280;5280;42.600;23.556;2024-01-15T02:15:52;92781.97;;;-1.53;100.00
10466;BME280;5280;42.600;23.556;2024-01-15T02:18:19;92763.84;;;-1.53;100.00
10466;BME280;5280;42.600;23.556;2024-01-15T02:20:46;92746.81;;;-1.58;100.00
10466;BME280;5280;42.600;23.556;2024-01-15T02:23:15;92753.53;;;-1.54;100.00
10466;BME280;5280;42.600;23.556;2024-01-15T02:25:43;92753.44;;;-1.51;100.00
10466;BME280;5280;42.600;23.556;2024-01-15T02:28:13;92758.59;;;-1.51;100.00
10466;BME280;5280;42.600;23.556;2024-01-15T02:30:43;92727.41;;;-1.68;100.00
10466;BME280;5280;42.600;23.556;2024-01-15T02:33:15;92751.75;;;-1.52;100.00
10466;BME280;5280;42.600;23.556;2024-01-15T02:35:46;92728.06;;;-1.63;100.00
10466;BME280;5280;42.600;23.556;2024-01-15T02:38:17;92713.06;;;-1.76;100.00
10466;BME280;5280;42.600;23.556;2024-01-15T02:40:44;92747.47;;;-1.53;100.00
10466;BME280;5280;42.600;23.556;2024-01-15T02:43:16;92750.13;;;-1.55;100.00
10466;BME280;5280;42.600;23.556;2024-01-15T02:45:44;92741.53;;;-1.55;100.00
10466;BME280;5280;42.600;23.556;2024-01-15T02:48:11;92701.59;;;-1.70;100.00
10466;BME280;5280;42.600;23.556;2024-01-15T02:50:38;92690.25;;;-1.67;100.00
10466;BME280;5280;42.600;23.556;2024-01-15T02:53:06;92702.03;;;-1.60;100.00
10466;BME280;5280;42.600;23.556;2024-01-15T02:55:34;92643.59;;;-2.05;100.00
10466;BME280;5280;42.600;23.556;2024-01-15T02:58:01;92695.00;;;-1.58;100.00
10466;BME280;5280;42.600;23.556;2024-01-15T03:00:31;92699.03;;;-1.51;100.00
10466;BME280;5280;42.600;23.556;2024-01-15T03:02:58;92689.41;;;-1.49;100.00
10466;BME280;5280;42.600;23.556;2024-01-15T03:05:25;92687.63;;;-1.47;100.00
10466;BME280;5280;42.600;23.556;2024-01-15T03:07:52;92684.13;;;-1.46;100.00
10466;BME280;5280;42.600;23.556;2024-01-15T03:10:19;92677.09;;;-1.44;100.00
10466;BME280;5280;42.600;23.556;2024-01-15T03:12:48;92684.75;;;-1.41;100.00
10466;BME280;5280;42.600;23.556;2024-01-15T03:15:17;92661.28;;;-1.57;100.00
10466;BME280;5280;42.600;23.556;2024-01-15T03:17:45;92672.84;;;-1.45;100.00
10466;BME280;5280;42.600;23.556;2024-01-15T03:20:12;92682.84;;;-1.38;100.00
10466;BME280;5280;42.600;23.556;2024-01-15T03:22:39;92682.16;;;-1.41;100.00
10466;BME280;5280;42.600;23.556;2024-01-15T03:25:08;92694.75;;;-1.34;100.00
10466;BME280;5280;42.600;23.556;2024-01-15T03:27:35;92669.25;;;-1.43;100.00
10466;BME280;5280;42.600;23.556;2024-01-15T03:30:08;92686.84;;;-1.31;100.00
10466;BME280;5280;42.600;23.556;2024-01-15T03:32:35;92686.22;;;-1.36;100.00
10466;BME280;5280;42.600;23.556;2024-01-15T03:35:02;92700.50;;;-1.27;100.00
10466;BME280;5280;42.600;23.556;2024-01-15T03:37:29;92666.41;;;-1.37;100.00
10466;BME280;5280;42.600;23.556;2024-01-15T03:39:56;92683.91;;;-1.23;100.00
10466;BME280;5280;42.600;23.556;2024-01-15T03:42:23;92676.50;;;-1.31;100.00
10466;BME280;5280;42.600;23.556;2024-01-15T03:44:50;92578.69;;;-1.82;100.00
10466;BME280;5280;42.600;23.556;2024-01-15T03:47:19;92663.53;;;-1.31;100.00
10466;BME280;5280;42.600;23.556;2024-01-15T03:49:46;92595.84;;;-1.60;100.00
10466;BME280;5280;42.600;23.556;2024-01-15T03:52:13;92615.28;;;-1.52;100.00
10466;BME280;5280;42.600;23.556;2024-01-15T03:54:40;92656.03;;;-1.18;100.00
10466;BME280;5280;42.600;23.556;2024-01-15T03:57:07;92587.91;;;-1.57;100.00
10466;BME280;5280;42.600;23.556;2024-01-15T03:59:34;92658.47;;;-1.15;100.00
10466;BME280;5280;42.600;23.556;2024-01-15T04:02:01;92653.44;;;-1.18;100.00
10466;BME280;5280;42.600;23.556;2024-01-15T04:04:31;92647.97;;;-1.12;100.00
10466;BME280;5280;42.600;23.556;2024-01-15T04:06:58;92665.31;;;-1.14;100.00
10466;BME280;5280;42.600;23.556;2024-01-15T04:09:25;92655.75;;;-1.12;100.00
10466;BME280;5280;42.600;23.556;2024-01-15T04:11:55;92612.16;;;-1.40;100.00
10466;BME280;5280;42.600;23.556;2024-01-15T04:14:22;92592.53;;;-1.64;100.00
10466;BME280;5280;42.600;23.556;2024-01-15T04:16:49;92649.50;;;-1.08;100.00
10466;BME280;5280;42.600;23.556;2024-01-15T04:19:22;92624.72;;;-1.32;100.00
10466;BME280;5280;42.600;23.556;2024-01-15T04:21:50;92578.59;;;-1.61;100.00
10466;BME280;5280;42.600;23.556;2024-01-15T04:24:19;92658.78;;;-1.04;100.00
10466;BME280;5280;42.600;23.556;2024-01-15T04:26:47;92646.97;;;-1.09;100.00
10466;BME280;5280;42.600;23.556;2024-01-15T04:29:14;92620.78;;;-1.22;100.00
10466;BME280;5280;42.600;23.556;2024-01-15T04:31:41;92650.13;;;-1.03;100.00
10466;BME280;5280;42.600;23.556;2024-01-15T04:34:11;92606.16;;;-1.23;100.00
10466;BME280;5280;42.600;23.556;2024-01-15T04:36:41;92644.88;;;-1.01;100.00
10466;BME280;5280;42.600;23.556;2024-01-15T04:39:10;92633.09;;;-1.08;100.00
10466;BME280;5280;42.600;23.556;2024-01-15T04:41:37;92649.06;;;-0.99;100.00
10466;BME280;5280;42.600;23.556;2024-01-15T04:44:04;92646.91;;;-1.08;100.00
10466;BME280;5280;42.600;23.556;2024-01-15T04:46:31;92637.38;;;-1.07;100.00
10466;BME280;5280;42.600;23.556;2024-01-15T04:48:58;92643.19;;;-1.02;100.00
10466;BME280;5280;42.600;23.556;2024-01-15T04:51:27;92593.69;;;-1.34;100.00
10466;BME280;5280;42.600;23.556;2024-01-15T04:53:59;92650.97;;;-1.02;100.00
10466;BME280;5280;42.600;23.556;2024-01-15T04:56:28;92588.72;;;-1.38;100.00
10466;BME280;5280;42.600;23.556;2024-01-15T04:58:57;92629.03;;;-1.14;100.00
10466;BME280;5280;42.600;23.556;2024-01-15T05:01:24;92651.13;;;-1.05;100.00
10466;BME280;5280;42.600;23.556;2024-01-15T05:03:51;92639.28;;;-1.11;100.00
10466;BME280;5280;42.600;23.556;2024-01-15T05:06:21;92641.72;;;-1.08;100.00
10466;BME280;5280;42.600;23.556;2024-01-15T05:08:48;92643.47;;;-1.08;100.00
10466;BME280;5280;42.600;23.556;2024-01-15T05:11:18;92640.97;;;-1.10;100.00
10466;BME280;5280;42.600;23.556;2024-01-15T05:13:47;92638.28;;;-1.08;100.00
10466;BME280;5280;42.600;23.556;2024-01-15T05:16:13;92640.97;;;-1.10;100.00
10466;BME280;5280;42.600;23.556;2024-01-15T05:18:40;92630.88;;;-1.16;100.00
10466;BME280;5280;42.600;23.556;2024-01-15T05:21:08;92618.81;;;-1.17;100.00
10466;BME280;5280;42.600;23.556;2024-01-15T05:23:36;92607.84;;;-1.22;100.00
10466;BME280;5280;42.600;23.556;2024-01-15T05:26:03;92583.41;;;-1.35;100.00
10466;BME280;5280;42.600;23.556;2024-01-15T05:28:30;92567.81;;;-1.52;100.00
10466;BME280;5280;42.600;23.556;2024-01-15T05:30:58;92596.00;;;-1.27;100.00
10466;BME280;5280;42.600;23.556;2024-01-15T05:33:26;92608.47;;;-1.17;100.00
10466;BME280;5280;42.600;23.556;2024-01-15T05:35:53;92586.22;;;-1.40;100.00
10466;BME280;5280;42.600;23.556;2024-01-15T05:38:20;92605.94;;;-1.18;100.00
10466;BME280;5280;42.600;23.556;2024-01-15T05:40:47;92610.72;;;-1.28;100.00
10466;BME280;5280;42.600;23.556;2024-01-15T05:43:14;92595.25;;;-1.29;100.00
10466;BME280;5280;42.600;23.556;2024-01-15T05:45:43;92598.25;;;-1.20;100.00
10466;BME280;5280;42.600;23.556;2024-01-15T05:48:11;92564.78;;;-1.43;100.00
10466;BME280;5280;42.600;23.556;2024-01-15T05:50:39;92548.34;;;-1.42;100.00
10466;BME280;5280;42.600;23.556;2024-01-15T05:53:06;92602.53;;;-1.02;100.00
10466;BME280;5280;42.600;23.556;2024-01-15T05:55:36;92590.66;;;-1.06;100.00
10466;BME280;5280;42.600;23.556;2024-01-15T05:58:03;92577.75;;;-1.07;100.00
10466;BME280;5280;42.600;23.556;2024-01-15T06:00:33;92519.84;;;-1.42;100.00
10466;BME280;5280;42.600;23.556;2024-01-15T06:03:01;92563.78;;;-1.22;100.00
10466;BME280;5280;42.600;23.556;2024-01-15T06:05:30;92572.00;;;-1.14;100.00
10466;BME280;5280;42.600;23.556;2024-01-15T06:07:57;92582.09;;;-1.08;100.00
10466;BME280;5280;42.600;23.556;2024-01-15T06:10:24;92566.31;;;-1.20;100.00
10466;BME280;5280;42.600;23.556;2024-01-15T06:12:51;92582.25;;;-1.11;100.00
10466;BME280;5280;42.600;23.556;2024-01-15T06:15:18;92581.41;;;-1.11;100.00
10466;BME280;5280;42.600;23.556;2024-01-15T06:17:45;92601.06;;;-1.07;100.00
10466;BME280;5280;42.600;23.556;2024-01-15T06:20:15;92578.13;;;-1.15;100.00
10466;BME280;5280;42.600;23.556;2024-01-15T06:22:44;92609.53;;;-1.04;100.00
10466;BME280;5280;42.600;23.556;2024-01-15T06:25:11;92602.16;;;-1.11;100.00
10466;BME280;5280;42.600;23.556;2024-01-15T06:27:40;92609.63;;;-1.05;100.00
10466;BME280;5280;42.600;23.556;2024-01-15T06:30:08;92606.19;;;-1.06;100.00
10466;BME280;5280;42.600;23.556;2024-01-15T06:32:35;92609.94;;;-1.11;100.00
10466;BME280;5280;42.600;23.556;2024-01-15T06:35:02;92586.03;;;-1.18;100.00
10466;BME280;5280;42.600;23.556;2024-01-15T06:37:30;92613.88;;;-1.04;100.00
10466;BME280;5280;42.600;23.556;2024-01-15T06:39:59;92618.53;;;-1.11;100.00
10466;BME280;5280;42.600;23.556;2024-01-15T06:42:26;92613.06;;;-1.05;100.00
10466;BME280;5280;42.600;23.556;2024-01-15T06:44:53;92609.84;;;-1.10;100.00
10466;BME280;5280;42.600;23.556;2024-01-15T06:47:20;92550.16;;;-1.44;100.00
10466;BME280;5280;42.600;23.556;2024-01-15T06:49:47;92589.69;;;-1.22;100.00
10466;BME280;5280;42.600;23.556;2024-01-15T06:52:16;92594.31;;;-1.10;100.00
10466;BME280;5280;42.600;23.556;2024-01-15T06:54:43;92584.06;;;-1.13;100.00
10466;BME280;5280;42.600;23.556;2024-01-15T06:57:12;92577.13;;;-1.12;100.00
10466;BME280;5280;42.600;23.556;2024-01-15T06:59:39;92604.00;;;-0.96;100.00
10466;BME280;5280;42.600;23.556;2024-01-15T07:02:06;92580.28;;;-1.06;100.00
10466;BME280;5280;42.600;23.556;2024-01-15T07:04:33;92607.13;;;-0.90;100.00
10466;BME280;5280;42.600;23.556;2024-01-15T07:07:00;92584.09;;;-0.96;100.00
10466;BME280;5280;42.600;23.556;2024-01-15T07:09:27;92601.91;;;-0.71;100.00
10466;BME280;5280;42.600;23.556;2024-01-15T07:11:54;92581.44;;;-0.77;100.00
10466;BME280;5280;42.600;23.556;2024-01-15T07:14:24;92594.50;;;-0.61;100.00
10466;BME280;5280;42.600;23.556;2024-01-15T07:16:52;92575.34;;;-0.76;100.00
10466;BME280;5280;42.600;23.556;2024-01-15T07:19:19;92602.44;;;-0.47;100.00
10466;BME280;5280;42.600;23.556;2024-01-15T07:21:46;92593.50;;;-0.41;100.00
10466;BME280;5280;42.600;23.556;2024-01-15T07:24:13;92610.28;;;-0.31;100.00
10466;BME280;5280;42.600;23.556;2024-01-15T07:26:40;92609.59;;;-0.35;100.00
10466;BME280;5280;42.600;23.556;2024-01-15T07:29:07;92624.78;;;-0.27;100.00
10466;BME280;5280;42.600;23.556;2024-01-15T07:31:36;92545.69;;;-0.70;100.00
10466;BME280;5280;42.600;23.556;2024-01-15T07:34:03;92623.22;;;-0.14;100.00
10466;BME280;5280;42.600;23.556;2024-01-15T07:36:30;92583.78;;;-0.38;100.00
10466;BME280;5280;42.600;23.556;2024-01-15T07:38:57;92626.97;;;-0.03;100.00
10466;BME280;5280;42.600;23.556;2024-01-15T07:41:24;92600.09;;;-0.19;100.00
10466;BME280;5280;42.600;23.556;2024-01-15T07:43:51;92616.75;;;-0.06;100.00
10466;BME280;5280;42.600;23.556;2024-01-15T07:46:18;92609.69;;;-0.04;100.00
10466;BME280;5280;42.600;23.556;2024-01-15T07:48:47;92599.91;;;0.02;100.00
10466;BME280;5280;42.600;23.556;2024-01-15T07:51:18;92614.09;;;0.12;100.00
10466;BME280;5280;42.600;23.556;2024-01-15T07:53:53;92568.94;;;-0.19;100.00
10466;BME280;5280;42.600;23.556;2024-01-15T07:56:20;92563.75;;;-0.19;100.00
10466;BME280;5280;42.600;23.556;2024-01-15T07:58:47;92574.13;;;-0.19;100.00
10466;BME280;5280;42.600;23.556;2024-01-15T08:01:15;92609.22;;;0.06;100.00
10466;BME280;5280;42.600;23.556;2024-01-15T08:03:42;92578.28;;;0.01;100.00
10466;BME280;5280;42.600;23.556;2024-01-15T08:06:14;92582.09;;;0.11;100.00
10466;BME280;5280;42.600;23.556;2024-01-15T08:08:42;92587.94;;;-0.01;100.00
10466;BME280;5280;42.600;23.556;2024-01-15T08:11:09;92633.94;;;0.30;100.00
10466;BME280;5280;42.600;23.556;2024-01-15T08:13:36;92605.50;;;0.27;100.00
10466;BME280;5280;42.600;23.556;2024-01-15T08:16:04;92573.81;;;-0.13;100.00
10466;BME280;5280;42.600;23.556;2024-01-15T08:18:31;92594.69;;;0.19;100.00
10466;BME280;5280;42.600;23.556;2024-01-15T08:20:58;92601.06;;;0.29;100.00
10466;BME280;5280;42.600;23.556;2024-01-15T08:23:26;92542.03;;;-0.01;100.00
10466;BME280;5280;42.600;23.556;2024-01-15T08:25:56;92584.47;;;0.31;100.00
10466;BME280;5280;42.600;23.556;2024-01-15T08:28:24;92584.81;;;0.41;100.00
10466;BME280;5280;42.600;23.556;2024-01-15T08:30:51;92585.13;;;0.35;100.00
10466;BME280;5280;42.600;23.556;2024-01-15T08:33:18;92548.56;;;0.07;100.00
10466;BME280;5280;42.600;23.556;2024-01-15T08:35:45;92593.38;;;0.43;100.00
10466;BME280;5280;42.600;23.556;2024-01-15T08:38:12;92583.84;;;0.59;100.00
10466;BME280;5280;42.600;23.556;2024-01-15T08:40:41;92568.72;;;0.50;100.00
10466;BME280;5280;42.600;23.556;2024-01-15T08:43:08;92572.34;;;0.63;98.80
10466;BME280;5280;42.600;23.556;2024-01-15T08:45:37;92573.78;;;0.69;99.52
10466;BME280;5280;42.600;23.556;2024-01-15T08:48:04;92583.94;;;0.73;98.94
10466;BME280;5280;42.600;23.556;2024-01-15T08:50:32;92578.47;;;0.78;98.61
10466;BME280;5280;42.600;23.556;2024-01-15T08:52:58;92571.19;;;0.84;97.67
10466;BME280;5280;42.600;23.556;2024-01-15T08:55:25;92555.47;;;0.86;97.65
10466;BME280;5280;42.600;23.556;2024-01-15T08:57:54;92548.75;;;0.82;98.74
10466;BME280;5280;42.600;23.556;2024-01-15T09:00:21;92546.56;;;0.90;99.83
10466;BME280;5280;42.600;23.556;2024-01-15T09:02:48;92533.81;;;0.85;100.00
10466;BME280;5280;42.600;23.556;2024-01-15T09:05:15;92523.84;;;0.94;100.00
10466;BME280;5280;42.600;23.556;2024-01-15T09:07:42;92526.50;;;1.08;100.00
10466;BME280;5280;42.600;23.556;2024-01-15T09:10:11;92515.31;;;1.06;100.00
10466;BME280;5280;42.600;23.556;2024-01-15T09:12:38;92495.97;;;0.96;100.00
10466;BME280;5280;42.600;23.556;2024-01-15T09:15:07;92497.38;;;1.01;100.00
10466;BME280;5280;42.600;23.556;2024-01-15T09:17:35;92515.28;;;1.21;100.00
10466;BME280;5280;42.600;23.556;2024-01-15T09:20:02;92504.38;;;1.15;100.00
10466;BME280;5280;42.600;23.556;2024-01-15T09:22:30;92499.03;;;1.18;100.00
10466;BME280;5280;42.600;23.556;2024-01-15T09:24:57;92496.44;;;1.18;100.00
10466;BME280;5280;42.600;23.556;2024-01-15T09:27:25;92480.28;;;1.27;100.00
10466;BME280;5280;42.600;23.556;2024-01-15T09:29:52;92471.34;;;1.31;100.00
10466;BME280;5280;42.600;23.556;2024-01-15T09:32:21;92477.06;;;1.52;98.97
10466;BME280;5280;42.600;23.556;2024-01-15T09:34:48;92459.47;;;1.69;96.75
10466;BME280;5280;42.600;23.556;2024-01-15T09:37:16;92439.59;;;1.83;97.05
10466;BME280;5280;42.600;23.556;2024-01-15T09:39:43;92427.94;;;2.02;95.13
10466;BME280;5280;42.600;23.556;2024-01-15T09:42:10;92461.69;;;2.32;92.34
10466;BME280;5280;42.600;23.556;2024-01-15T09:44:38;92467.72;;;2.33;91.69
10466;BME280;5280;42.600;23.556;2024-01-15T09:47:05;92478.03;;;2.34;91.25
10466;BME280;5280;42.600;23.556;2024-01-15T09:49:34;92453.41;;;2.26;92.19
10466;BME280;5280;42.600;23.556;2024-01-15T09:52:03;92451.34;;;2.31;94.00
10466;BME280;5280;42.600;23.556;2024-01-15T09:54:31;92443.59;;;2.29;96.03
10466;BME280;5280;42.600;23.556;2024-01-15T09:57:00;92442.84;;;2.41;97.27
10466;BME280;5280;42.600;23.556;2024-01-15T09:59:28;92440.44;;;2.38;94.23
10466;BME280;5280;42.600;23.556;2024-01-15T10:01:55;92422.81;;;2.42;93.91
10466;BME280;5280;42.600;23.556;2024-01-15T10:04:24;92398.38;;;2.30;97.82
10466;BME280;5280;42.600;23.556;2024-01-15T10:06:52;92437.84;;;2.38;99.13
10466;BME280;5280;42.600;23.556;2024-01-15T10:09:20;92413.41;;;2.39;98.91
10466;BME280;5280;42.600;23.556;2024-01-15T10:11:48;92394.25;;;2.40;97.82
10466;BME280;5280;42.600;23.556;2024-01-15T10:14:15;92394.84;;;2.31;100.00
10466;BME280;5280;42.600;23.556;2024-01-15T10:16:42;92388.00;;;2.43;100.00
10466;BME280;5280;42.600;23.556;2024-01-15T10:19:10;92376.66;;;2.44;99.25
10466;BME280;5280;42.600;23.556;2024-01-15T10:21:37;92382.94;;;2.54;99.27
10466;BME280;5280;42.600;23.556;2024-01-15T10:24:06;92389.94;;;2.53;98.16
10466;BME280;5280;42.600;23.556;2024-01-15T10:26:33;92402.00;;;2.54;98.13
10466;BME280;5280;42.600;23.556;2024-01-15T10:29:01;92374.53;;;2.36;97.95
10466;BME280;5280;42.600;23.556;2024-01-15T10:31:28;92402.22;;;2.51;98.76
10466;BME280;5280;42.600;23.556;2024-01-15T10:34:12;92373.91;;;2.45;98.79
10466;BME280;5280;42.600;23.556;2024-01-15T10:36:41;92374.22;;;2.41;100.00
10466;BME280;5280;42.600;23.556;2024-01-15T10:39:09;92365.69;;;2.39;99.53
10466;BME280;5280;42.600;23.556;2024-01-15T10:41:37;92353.06;;;2.45;99.27
10466;BME280;5280;42.600;23.556;2024-01-15T10:44:05;92337.56;;;2.30;99.64
10466;BME280;5280;42.600;23.556;2024-01-15T10:46:33;92360.19;;;2.29;98.84
10466;BME280;5280;42.600;23.556;2024-01-15T10:49:00;92347.91;;;2.31;96.49
10466;BME280;5280;42.600;23.556;2024-01-15T10:51:28;92358.00;;;2.23;95.53
10466;BME280;5280;42.600;23.556;2024-01-15T10:53:56;92333.31;;;2.02;98.94
10466;BME280;5280;42.600;23.556;2024-01-15T10:56:25;92340.16;;;2.17;100.00
10466;BME280;5280;42.600;23.556;2024-01-15T10:59:05;92335.69;;;2.19;100.00
10466;BME280;5280;42.600;23.556;2024-01-15T11:01:36;92319.34;;;2.30;100.00
10466;BME280;5280;42.600;23.556;2024-01-15T11:04:04;92343.72;;;2.55;99.01
10466;BME280;5280;42.600;23.556;2024-01-15T11:06:42;92325.47;;;2.55;98.72
10466;BME280;5280;42.600;23.556;2024-01-15T11:09:09;92325.38;;;2.70;97.49
10466;BME280;5280;42.600;23.556;2024-01-15T11:11:42;92320.16;;;2.70;100.00
10466;BME280;5280;42.600;23.556;2024-01-15T11:14:10;92290.53;;;2.58;100.00
10466;BME280;5280;42.600;23.556;2024-01-15T11:16:55;92334.25;;;2.80;99.00
10466;BME280;5280;42.600;23.556;2024-01-15T11:19:25;92339.16;;;2.84;95.70
10466;BME280;5280;42.600;23.556;2024-01-15T11:21:53;92325.06;;;2.74;93.18
10466;BME280;5280;42.600;23.556;2024-01-15T11:24:34;92331.06;;;2.89;94.81
10466;BME280;5280;42.600;23.556;2024-01-15T11:27:04;92319.88;;;2.99;94.98
10466;BME280;5280;42.600;23.556;2024-01-15T11:29:32;92320.09;;;2.84;94.11
10466;BME280;5280;42.600;23.556;2024-01-15T11:32:02;92341.41;;;3.03;94.87
10466;BME280;5280;42.600;23.556;2024-01-15T11:34:52;92317.28;;;3.12;98.16
10466;BME280;5280;42.600;23.556;2024-01-15T11:37:20;92319.06;;;3.12;98.93
10466;BME280;5280;42.600;23.556;2024-01-15T11:39:51;92324.19;;;3.13;96.19
10466;BME280;5280;42.600;23.556;2024-01-15T11:42:21;92259.13;;;2.85;97.33
10466;BME280;5280;42.600;23.556;2024-01-15T11:44:49;92264.75;;;3.04;99.25
10466;BME280;5280;42.600;23.556;2024-01-15T11:47:41;92296.81;;;3.31;100.00
10466;BME280;5280;42.600;23.556;2024-01-15T11:50:13;92277.47;;;3.34;100.00
10466;BME280;5280;42.600;23.556;2024-01-15T11:52:45;92265.47;;;3.31;100.00
10466;BME280;5280;42.600;23.556;2024-01-15T11:55:19;92300.31;;;3.56;100.00
10466;BME280;5280;42.600;23.556;2024-01-15T11:57:50;92266.09;;;3.47;100.00
10466;BME280;5280;42.600;23.556;2024-01-15T12:00:18;92252.44;;;3.31;100.00
10466;BME280;5280;42.600;23.556;2024-01-15T12:02:47;92288.31;;;3.53;100.00
10466;BME280;5280;42.600;23.556;2024-01-15T12:05:16;92278.63;;;3.42;100.00
10466;BME280;5280;42.600;23.556;2024-01-15T12:07:44;92282.59;;;3.48;98.72
10466;BME280;5280;42.600;23.556;2024-01-15T12:10:12;92270.88;;;3.54;100.00
10466;BME280;5280;42.600;23.556;2024-01-15T12:12:53;92273.16;;;3.58;100.00
10466;BME280;5280;42.600;23.556;2024-01-15T12:15:23;92285.06;;;3.62;100.00
10466;BME280;5280;42.600;23.556;2024-01-15T12:17:51;92293.28;;;3.69;100.00
10466;BME280;5280;42.600;23.556;2024-01-15T12:20:18;92277.22;;;3.62;100.00
10466;BME280;5280;42.600;23.556;2024-01-15T12:22:45;92268.31;;;3.65;100.00
10466;BME280;5280;42.600;23.556;2024-01-15T12:25:12;92234.75;;;3.47;100.00
10466;BME280;5280;42.600;23.556;2024-01-15T12:27:39;92270.34;;;3.61;100.00
10466;BME280;5280;42.600;23.556;2024-01-15T12:30:11;92233.59;;;3.39;100.00
10466;BME280;5280;42.600;23.556;2024-01-15T12:32:39;92263.22;;;3.63;100.00
10466;BME280;5280;42.600;23.556;2024-01-15T12:35:07;92258.38;;;3.70;100.00
10466;BME280;5280;42.600;23.556;2024-01-15T12:37:35;92264.84;;;3.77;100.00
10466;BME280;5280;42.600;23.556;2024-01-15T12:40:03;92244.50;;;3.69;100.00
10466;BME280;5280;42.600;23.556;2024-01-15T12:42:32;92253.16;;;3.70;100.00
10466;BME280;5280;42.600;23.556;2024-01-15T12:45:00;92232.56;;;3.41;100.00
10466;BME280;5280;42.600;23.556;2024-01-15T12:47:29;92172.09;;;2.98;100.00
10466;BME280;5280;42.600;23.556;2024-01-15T12:49:57;92236.19;;;3.52;100.00
10466;BME280;5280;42.600;23.556;2024-01-15T12:52:26;92219.19;;;3.46;100.00
10466;BME280;5280;42.600;23.556;2024-01-15T12:54:54;92210.41;;;3.47;100.00
10466;BME280;5280;42.600;23.556;2024-01-15T12:57:21;92201.47;;;3.38;100.00
10466;BME280;5280;42.600;23.556;2024-01-15T12:59:50;92189.44;;;3.36;100.00